createdAt,value
2019-05-12T00:01:49.629Z,11.00
2019-05-12T00:04:18.902Z,11.00
2019-05-12T00:06:48.011Z,10.90
2019-05-12T00:09:18.737Z,10.90
2019-05-12T00:11:48.463Z,10.90
2019-05-12T00:14:18.177Z,11.00
2019-05-12T00:16:49.137Z,11.00
2019-05-12T00:19:17.992Z,11.10
2019-05-12T00:21:48.367Z,11.00
2019-05-12T00:24:18.711Z,11.00
2019-05-12T00:26:48.327Z,10.90
2019-05-12T00:29:18.526Z,10.80
2019-05-12T00:31:47.898Z,10.90
2019-05-12T00:34:18.363Z,10.80
2019-05-12T00:36:48.540Z,10.60
2019-05-12T00:39:19.125Z,10.80
2019-05-12T00:41:48.276Z,10.70
2019-05-12T00:44:18.376Z,10.80
2019-05-12T00:46:48.797Z,10.80
2019-05-12T00:49:18.692Z,10.80
2019-05-12T00:51:48.508Z,10.90
2019-05-12T00:54:17.919Z,10.90
2019-05-12T00:56:48.164Z,10.80
2019-05-12T00:59:19.019Z,10.90
2019-05-12T01:01:48.175Z,10.80
2019-05-12T01:04:17.604Z,10.70
2019-05-12T01:06:48.591Z,10.70
2019-05-12T01:09:17.610Z,10.80
2019-05-12T01:11:48.141Z,10.80
2019-05-12T01:14:18.661Z,10.80
2019-05-12T01:16:48.631Z,10.80
2019-05-12T01:19:18.576Z,10.70
2019-05-12T01:21:48.145Z,10.70
2019-05-12T01:24:18.741Z,10.60
2019-05-12T01:26:47.718Z,10.60
2019-05-12T01:29:17.670Z,10.70
2019-05-12T01:31:48.676Z,10.70
2019-05-12T01:34:18.197Z,10.70
2019-05-12T01:36:48.316Z,10.50
2019-05-12T01:39:18.760Z,10.60
2019-05-12T01:41:48.210Z,10.50
2019-05-12T01:44:18.406Z,10.40
2019-05-12T01:46:48.359Z,10.50
2019-05-12T01:49:18.700Z,10.50
2019-05-12T01:51:47.714Z,10.40
2019-05-12T01:54:18.685Z,10.30
2019-05-12T01:56:48.281Z,10.40
2019-05-12T01:59:18.530Z,10.50
2019-05-12T02:01:48.758Z,10.60
2019-05-12T02:04:18.177Z,10.50
2019-05-12T02:06:48.542Z,10.30
2019-05-12T02:09:19.128Z,10.30
2019-05-12T02:11:48.317Z,10.20
2019-05-12T02:14:18.273Z,10.30
2019-05-12T02:16:47.758Z,10.40
2019-05-12T02:19:17.878Z,10.50
2019-05-12T02:21:48.702Z,10.50
2019-05-12T02:24:26.839Z,10.40
2019-05-12T02:26:48.689Z,10.30
2019-05-12T02:29:18.305Z,10.40
2019-05-12T02:31:50.083Z,10.30
2019-05-12T02:34:17.855Z,10.30
2019-05-12T02:36:46.755Z,10.20
2019-05-12T02:39:15.601Z,10.30
2019-05-12T02:41:44.930Z,10.20
2019-05-12T02:44:15.187Z,10.20
2019-05-12T02:46:44.755Z,10.20
2019-05-12T02:49:15.637Z,10.20
2019-05-12T02:51:45.577Z,10.20
2019-05-12T02:54:15.309Z,10.20
2019-05-12T02:56:45.299Z,10.20
2019-05-12T02:59:16.205Z,10.20
2019-05-12T03:01:48.067Z,10.30
2019-05-12T03:04:18.626Z,10.40
2019-05-12T03:06:48.177Z,10.50
2019-05-12T03:09:17.029Z,10.50
2019-05-12T03:11:46.256Z,10.50
2019-05-12T03:14:15.571Z,10.50
2019-05-12T03:16:45.456Z,10.50
2019-05-12T03:19:15.101Z,10.50
2019-05-12T03:21:44.385Z,10.50
2019-05-12T03:24:14.517Z,10.50
2019-05-12T03:26:45.042Z,10.50
2019-05-12T03:29:14.759Z,10.60
2019-05-12T03:31:48.764Z,10.60
2019-05-12T03:34:19.442Z,10.70
2019-05-12T03:36:50.625Z,10.70
2019-05-12T03:39:15.360Z,10.80
2019-05-12T03:41:44.699Z,10.80
2019-05-12T03:44:15.026Z,10.80
2019-05-12T03:46:45.523Z,10.80
2019-05-12T03:49:15.556Z,10.80
2019-05-12T03:51:45.723Z,10.80
2019-05-12T03:54:15.439Z,10.70
2019-05-12T03:56:45.119Z,10.80
2019-05-12T03:59:14.941Z,10.80
2019-05-12T04:01:45.098Z,10.80
2019-05-12T04:04:15.204Z,10.70
2019-05-12T04:06:45.482Z,10.80
2019-05-12T04:09:15.466Z,10.90
2019-05-12T04:11:44.652Z,10.90
2019-05-12T04:14:14.704Z,10.90
2019-05-12T04:16:45.186Z,10.80
2019-05-12T04:19:14.913Z,10.80
2019-05-12T04:21:44.787Z,10.80
2019-05-12T04:24:14.448Z,10.70
2019-05-12T04:26:44.891Z,10.60
2019-05-12T04:29:15.512Z,10.70
2019-05-12T04:31:44.585Z,10.70
2019-05-12T04:34:17.903Z,10.80
2019-05-12T04:36:44.915Z,10.90
2019-05-12T04:39:14.795Z,10.90
2019-05-12T04:41:44.745Z,11.00
2019-05-12T04:44:15.157Z,11.20
2019-05-12T04:46:45.210Z,11.20
2019-05-12T04:49:15.716Z,11.40
2019-05-12T04:51:45.182Z,11.50
2019-05-12T04:54:15.179Z,11.60
2019-05-12T04:56:44.747Z,11.60
2019-05-12T04:59:15.742Z,11.60
2019-05-12T05:01:45.317Z,11.50
2019-05-12T05:04:15.541Z,11.60
2019-05-12T05:06:45.047Z,11.70
2019-05-12T05:09:14.526Z,11.70
2019-05-12T05:11:45.118Z,11.80
2019-05-12T05:14:14.413Z,11.80
2019-05-12T05:16:45.197Z,11.90
2019-05-12T05:19:14.037Z,12.20
2019-05-12T05:21:43.772Z,12.40
2019-05-12T05:24:14.243Z,12.80
2019-05-12T05:26:43.674Z,13.30
2019-05-12T05:29:13.575Z,13.60
2019-05-12T05:31:44.227Z,13.90
2019-05-12T05:34:14.957Z,14.60
2019-05-12T05:36:43.557Z,14.90
2019-05-12T05:39:13.896Z,14.90
2019-05-12T05:41:48.817Z,14.60
2019-05-12T05:44:13.886Z,15.00
2019-05-12T05:46:47.696Z,16.70
2019-05-12T05:49:13.427Z,19.10
2019-05-12T05:51:46.187Z,19.60
2019-05-12T05:54:13.765Z,18.70
2019-05-12T05:56:56.941Z,17.70
2019-05-12T05:59:15.084Z,17.20
2019-05-12T06:01:51.526Z,16.60
2019-05-12T06:04:15.975Z,16.30
2019-05-12T06:06:50.483Z,16.00
2019-05-12T06:09:15.334Z,15.70
2019-05-12T06:11:44.172Z,15.60
2019-05-12T06:14:15.673Z,15.40
2019-05-12T06:16:43.512Z,15.30
2019-05-12T06:19:14.079Z,15.30
2019-05-12T06:21:44.001Z,15.20
2019-05-12T06:24:15.323Z,15.20
2019-05-12T06:26:56.760Z,15.50
2019-05-12T06:29:20.375Z,16.50
2019-05-12T06:31:45.493Z,19.40
2019-05-12T06:34:20.540Z,21.90
2019-05-12T06:36:44.888Z,23.70
2019-05-12T06:39:19.062Z,25.60
2019-05-12T06:41:44.467Z,27.10
2019-05-12T06:44:17.171Z,28.40
2019-05-12T06:46:44.262Z,29.40
2019-05-12T06:49:17.431Z,29.60
2019-05-12T06:51:44.443Z,29.70
2019-05-12T06:54:15.055Z,28.10
2019-05-12T06:56:44.338Z,26.60
2019-05-12T06:59:14.748Z,27.10
2019-05-12T07:01:44.986Z,28.10
2019-05-12T07:04:14.270Z,27.60
2019-05-12T07:06:44.170Z,27.40
2019-05-12T07:09:16.236Z,27.80
2019-05-12T07:11:52.791Z,28.20
2019-05-12T07:14:22.587Z,28.40
2019-05-12T07:16:46.425Z,28.40
2019-05-12T07:19:20.697Z,28.70
2019-05-12T07:21:50.798Z,27.80
2019-05-12T07:24:16.417Z,26.40
2019-05-12T07:26:47.919Z,24.80
2019-05-12T07:29:15.724Z,23.00
2019-05-12T07:31:44.946Z,21.70
2019-05-12T07:34:13.774Z,20.70
2019-05-12T07:36:44.645Z,19.40
2019-05-12T07:39:14.393Z,18.60
2019-05-12T07:41:50.946Z,18.10
2019-05-12T07:44:17.896Z,17.90
2019-05-12T07:46:49.481Z,17.60
2019-05-12T07:49:22.715Z,17.90
2019-05-12T07:51:50.193Z,18.10
2019-05-12T07:54:19.239Z,19.60
2019-05-12T07:56:48.119Z,19.10
2019-05-12T07:59:17.028Z,17.90
2019-05-12T08:01:51.864Z,17.70
2019-05-12T08:04:16.362Z,18.20
2019-05-12T08:06:46.787Z,17.60
2019-05-12T08:09:15.936Z,17.60
2019-05-12T08:11:44.749Z,19.60
2019-05-12T08:14:24.692Z,22.70
2019-05-12T08:16:45.533Z,25.60
2019-05-12T08:19:23.551Z,27.10
2019-05-12T08:21:49.177Z,26.80
2019-05-12T08:24:19.014Z,26.00
2019-05-12T08:26:49.123Z,27.00
2019-05-12T08:29:22.047Z,26.50
2019-05-12T08:31:50.906Z,25.60
2019-05-12T08:34:19.802Z,25.10
2019-05-12T08:36:53.051Z,22.90
2019-05-12T08:39:22.844Z,21.40
2019-05-12T08:41:49.944Z,20.90
2019-05-12T08:44:24.578Z,20.10
2019-05-12T08:46:51.989Z,19.80
2019-05-12T08:49:23.336Z,19.40
2019-05-12T08:51:55.794Z,19.30
2019-05-12T08:54:28.368Z,19.20
2019-05-12T08:57:00.987Z,19.50
2019-05-12T08:59:28.790Z,20.10
2019-05-12T09:02:00.512Z,20.40
2019-05-12T09:04:28.241Z,19.50
2019-05-12T09:06:59.835Z,18.90
2019-05-12T09:09:28.220Z,19.30
2019-05-12T09:11:57.127Z,20.00
2019-05-12T09:14:26.111Z,19.30
2019-05-12T09:17:02.781Z,18.60
2019-05-12T09:19:27.221Z,18.20
2019-05-12T09:21:56.163Z,17.50
2019-05-12T09:24:27.237Z,17.70
2019-05-12T09:26:59.113Z,17.60
2019-05-12T09:29:26.485Z,17.70
2019-05-12T09:32:04.590Z,17.90
2019-05-12T09:34:29.893Z,18.80
2019-05-12T09:36:59.827Z,19.70
2019-05-12T09:39:34.040Z,21.20
2019-05-12T09:42:00.081Z,23.00
2019-05-12T09:44:30.595Z,23.50
2019-05-12T09:46:59.372Z,23.70
2019-05-12T09:49:30.930Z,25.40
2019-05-12T09:51:58.695Z,25.10
2019-05-12T09:54:35.246Z,23.60
2019-05-12T09:56:59.781Z,23.80
2019-05-12T09:59:28.818Z,25.40
2019-05-12T10:01:57.651Z,25.50
2019-05-12T10:04:26.445Z,24.40
2019-05-12T10:06:55.275Z,23.50
2019-05-12T10:09:24.537Z,23.20
2019-05-12T10:12:00.262Z,23.10
2019-05-12T10:14:23.952Z,23.40
2019-05-12T10:16:52.718Z,24.50
2019-05-12T10:19:23.392Z,25.10
2019-05-12T10:21:55.191Z,24.40
2019-05-12T10:24:22.553Z,23.30
2019-05-12T10:26:51.460Z,22.30
2019-05-12T10:29:20.980Z,21.50
2019-05-12T10:31:50.082Z,20.90
2019-05-12T10:34:24.062Z,20.70
2019-05-12T10:36:53.752Z,20.50
2019-05-12T10:39:24.436Z,20.40
2019-05-12T10:41:54.579Z,20.80
2019-05-12T10:44:23.786Z,21.40
2019-05-12T10:46:54.235Z,23.30
2019-05-12T10:49:23.401Z,25.90
2019-05-12T10:51:53.993Z,26.70
2019-05-12T10:54:24.285Z,28.80
2019-05-12T10:56:54.630Z,29.40
2019-05-12T10:59:32.154Z,29.80
2019-05-12T11:01:54.329Z,29.10
2019-05-12T11:04:35.014Z,29.50
2019-05-12T11:06:53.949Z,28.80
2019-05-12T11:09:29.312Z,27.40
2019-05-12T11:11:54.003Z,26.30
2019-05-12T11:14:26.395Z,25.20
2019-05-12T11:16:54.820Z,24.50
2019-05-12T11:19:23.679Z,23.90
2019-05-12T11:21:53.598Z,23.50
2019-05-12T11:24:22.966Z,23.10
2019-05-12T11:26:53.618Z,22.50
2019-05-12T11:29:23.511Z,22.00
2019-05-12T11:31:53.843Z,24.10
2019-05-12T11:34:22.864Z,27.30
2019-05-12T11:36:54.384Z,28.80
2019-05-12T11:39:23.599Z,29.70
2019-05-12T11:41:55.228Z,31.30
2019-05-12T11:44:23.303Z,29.20
2019-05-12T11:46:54.476Z,29.10
2019-05-12T11:49:26.315Z,31.00
2019-05-12T11:51:54.324Z,30.80
2019-05-12T11:54:24.231Z,30.60
2019-05-12T11:56:53.889Z,29.70
2019-05-12T11:59:23.778Z,28.50
2019-05-12T12:01:53.987Z,28.50
2019-05-12T12:04:24.754Z,29.10
2019-05-12T12:06:54.291Z,27.70
2019-05-12T12:09:23.237Z,27.80
2019-05-12T12:11:56.660Z,27.60
2019-05-12T12:14:23.833Z,29.00
2019-05-12T12:16:54.452Z,27.30
2019-05-12T12:19:26.058Z,26.10
2019-05-12T12:21:53.909Z,25.00
2019-05-12T12:24:29.769Z,24.70
2019-05-12T12:26:53.729Z,24.70
2019-05-12T12:29:24.070Z,25.60
2019-05-12T12:31:54.940Z,25.50
2019-05-12T12:34:29.780Z,24.80
2019-05-12T12:36:54.518Z,24.00
2019-05-12T12:39:23.839Z,23.20
2019-05-12T12:41:59.753Z,22.30
2019-05-12T12:44:24.191Z,21.70
2019-05-12T12:46:59.925Z,20.80
2019-05-12T12:49:23.796Z,20.40
2019-05-12T12:51:52.629Z,19.90
2019-05-12T12:54:21.482Z,19.70
2019-05-12T12:56:50.377Z,19.80
2019-05-12T12:59:19.143Z,19.90
2019-05-12T13:01:47.963Z,20.70
2019-05-12T13:04:16.755Z,21.20
2019-05-12T13:06:45.663Z,21.50
2019-05-12T13:09:24.157Z,22.20
2019-05-12T13:11:44.959Z,21.80
2019-05-12T13:14:13.791Z,21.20
2019-05-12T13:16:43.699Z,20.70
2019-05-12T13:19:16.917Z,20.50
2019-05-12T13:21:43.923Z,20.70
2019-05-12T13:24:12.846Z,21.10
2019-05-12T13:26:43.536Z,21.50
2019-05-12T13:29:13.423Z,22.50
2019-05-12T13:31:46.379Z,22.50
2019-05-12T13:34:14.388Z,22.20
2019-05-12T13:36:44.012Z,21.80
2019-05-12T13:39:16.344Z,21.50
2019-05-12T13:41:43.814Z,21.40
2019-05-12T13:44:13.703Z,20.70
2019-05-12T13:46:43.722Z,20.10
2019-05-12T13:49:14.103Z,20.10
2019-05-12T13:51:47.911Z,20.20
2019-05-12T13:54:14.450Z,20.40
2019-05-12T13:56:44.281Z,20.60
2019-05-12T13:59:20.739Z,20.50
2019-05-12T14:01:45.783Z,20.40
2019-05-12T14:04:14.241Z,20.40
2019-05-12T14:06:43.050Z,20.40
2019-05-12T14:09:13.641Z,20.30
2019-05-12T14:11:43.659Z,20.30
2019-05-12T14:14:15.579Z,20.40
2019-05-12T14:16:44.636Z,20.00
2019-05-12T14:19:14.397Z,19.90
2019-05-12T14:21:43.483Z,19.50
2019-05-12T14:24:13.903Z,19.50
2019-05-12T14:26:47.582Z,19.70
2019-05-12T14:29:13.798Z,19.90
2019-05-12T14:31:52.510Z,19.90
2019-05-12T14:34:18.915Z,20.00
2019-05-12T14:36:43.796Z,20.10
2019-05-12T14:39:13.297Z,20.10
2019-05-12T14:41:44.341Z,19.80
2019-05-12T14:44:13.796Z,19.60
2019-05-12T14:46:48.675Z,19.50
2019-05-12T14:49:14.183Z,19.50
2019-05-12T14:51:44.245Z,19.60
2019-05-12T14:54:14.154Z,19.30
2019-05-12T14:56:44.862Z,19.10
2019-05-12T14:59:14.417Z,18.90
2019-05-12T15:01:56.579Z,18.90
2019-05-12T15:04:13.975Z,18.80
2019-05-12T15:06:44.357Z,18.50
2019-05-12T15:09:20.199Z,18.30
2019-05-12T15:11:43.880Z,18.00
2019-05-12T15:14:13.715Z,17.90
2019-05-12T15:16:44.851Z,17.80
2019-05-12T15:19:13.985Z,17.50
2019-05-12T15:21:43.718Z,17.30
2019-05-12T15:24:15.529Z,17.20
2019-05-12T15:26:43.121Z,17.10
2019-05-12T15:29:19.382Z,17.30
2019-05-12T15:31:53.433Z,17.10
2019-05-12T15:34:14.222Z,17.20
2019-05-12T15:36:51.679Z,17.60
2019-05-12T15:39:14.113Z,17.60
2019-05-12T15:41:43.138Z,17.20
2019-05-12T15:44:14.669Z,17.10
2019-05-12T15:46:46.651Z,17.20
2019-05-12T15:49:14.840Z,17.40
2019-05-12T15:51:53.093Z,17.00
2019-05-12T15:54:14.623Z,16.80
2019-05-12T15:56:43.711Z,16.80
2019-05-12T15:59:14.655Z,16.90
2019-05-12T16:01:43.974Z,16.90
2019-05-12T16:04:15.219Z,17.10
2019-05-12T16:06:52.846Z,17.30
2019-05-12T16:09:13.870Z,17.40
2019-05-12T16:11:42.710Z,17.10
2019-05-12T16:14:12.713Z,17.10
2019-05-12T16:16:42.773Z,17.00
2019-05-12T16:19:14.676Z,17.00
2019-05-12T16:21:45.551Z,16.90
2019-05-12T16:24:15.962Z,17.00
2019-05-12T16:26:51.629Z,17.00
2019-05-12T16:29:15.972Z,16.80
2019-05-12T16:31:49.620Z,16.80
2019-05-12T16:34:25.174Z,16.90
2019-05-12T16:36:54.923Z,16.90
2019-05-12T16:39:24.935Z,16.90
2019-05-12T16:41:54.885Z,16.90
2019-05-12T16:44:26.069Z,17.00
2019-05-12T16:46:56.827Z,17.00
2019-05-12T16:49:33.109Z,16.70
2019-05-12T16:51:57.522Z,16.80
2019-05-12T16:54:26.372Z,16.70
2019-05-12T16:57:00.204Z,16.80
2019-05-12T16:59:27.843Z,16.70
2019-05-12T17:01:59.361Z,16.70
2019-05-12T17:04:29.051Z,16.70
2019-05-12T17:06:58.308Z,16.80
2019-05-12T17:09:27.145Z,16.60
2019-05-12T17:11:56.353Z,16.50
2019-05-12T17:14:28.560Z,16.60
2019-05-12T17:16:59.321Z,16.80
2019-05-12T17:19:28.629Z,16.80
2019-05-12T17:21:59.600Z,16.60
2019-05-12T17:24:34.424Z,16.70
2019-05-12T17:27:03.855Z,16.90
2019-05-12T17:29:34.180Z,17.00
2019-05-12T17:32:04.304Z,17.00
2019-05-12T17:34:34.209Z,16.80
2019-05-12T17:37:05.182Z,16.50
2019-05-12T17:39:35.549Z,16.30
2019-05-12T17:42:04.560Z,16.40
2019-05-12T17:44:36.982Z,16.50
2019-05-12T17:47:06.710Z,16.40
2019-05-12T17:49:39.067Z,16.50
2019-05-12T17:52:13.145Z,16.60
2019-05-12T17:54:38.214Z,16.30
2019-05-12T17:57:09.517Z,16.30
2019-05-12T17:59:37.471Z,16.10
2019-05-12T18:02:13.253Z,16.20
2019-05-12T18:04:37.399Z,16.10
2019-05-12T18:07:13.158Z,15.90
2019-05-12T18:09:36.926Z,15.60
2019-05-12T18:12:05.700Z,15.70
2019-05-12T18:14:44.991Z,15.70
2019-05-12T18:17:08.676Z,15.50
2019-05-12T18:19:35.817Z,15.40
2019-05-12T18:22:09.355Z,15.40
2019-05-12T18:24:35.129Z,15.30
2019-05-12T18:27:07.329Z,15.00
2019-05-12T18:29:34.566Z,15.00
2019-05-12T18:32:04.924Z,14.90
2019-05-12T18:34:34.078Z,14.70
2019-05-12T18:37:05.203Z,14.50
2019-05-12T18:39:34.423Z,14.50
2019-05-12T18:42:03.653Z,14.50
2019-05-12T18:44:32.538Z,14.70
2019-05-12T18:47:01.339Z,14.80
2019-05-12T18:49:30.263Z,14.80
2019-05-12T18:52:00.128Z,14.70
2019-05-12T18:54:28.942Z,14.60
2019-05-12T18:57:02.325Z,14.50
2019-05-12T18:59:28.408Z,14.40
2019-05-12T19:01:57.226Z,14.40
2019-05-12T19:04:26.064Z,14.30
2019-05-12T19:06:54.913Z,14.20
2019-05-12T19:09:23.966Z,14.10
2019-05-12T19:11:53.657Z,14.00
2019-05-12T19:14:22.943Z,14.00
2019-05-12T19:16:53.801Z,14.00
2019-05-12T19:19:23.712Z,14.00
2019-05-12T19:22:04.990Z,14.00
2019-05-12T19:24:23.325Z,14.10
2019-05-12T19:26:54.141Z,14.10
2019-05-12T19:29:24.375Z,13.90
2019-05-12T19:31:57.293Z,13.80
2019-05-12T19:34:26.317Z,13.70
2019-05-12T19:36:54.077Z,13.70
2019-05-12T19:39:25.183Z,13.60
2019-05-12T19:41:54.327Z,13.60
2019-05-12T19:44:26.359Z,13.70
2019-05-12T19:46:54.064Z,13.50
2019-05-12T19:49:25.870Z,13.40
2019-05-12T19:51:54.648Z,13.50
2019-05-12T19:54:30.313Z,13.50
2019-05-12T19:57:00.856Z,13.50
2019-05-12T19:59:29.641Z,13.50
2019-05-12T20:02:00.308Z,13.40
2019-05-12T20:04:33.853Z,13.40
2019-05-12T20:07:05.678Z,13.30
2019-05-12T20:09:34.523Z,13.30
2019-05-12T20:12:07.813Z,13.30
2019-05-12T20:14:34.374Z,13.20
2019-05-12T20:17:03.906Z,13.10
2019-05-12T20:19:34.062Z,13.10
2019-05-12T20:22:04.432Z,13.00
2019-05-12T20:24:33.203Z,12.90
2019-05-12T20:27:03.977Z,12.90
2019-05-12T20:29:33.616Z,12.70
2019-05-12T20:32:04.868Z,12.60
2019-05-12T20:34:48.443Z,12.70
2019-05-12T20:37:13.106Z,12.70
2019-05-12T20:39:39.313Z,12.80
2019-05-12T20:42:15.924Z,12.80
2019-05-12T20:44:44.758Z,12.70
2019-05-12T20:47:14.062Z,12.80
2019-05-12T20:49:50.773Z,12.90
2019-05-12T20:52:14.429Z,12.70
2019-05-12T20:54:44.150Z,12.70
2019-05-12T20:57:14.171Z,12.70
2019-05-12T20:59:44.612Z,12.60
2019-05-12T21:02:14.110Z,12.60
2019-05-12T21:04:44.314Z,12.60
2019-05-12T21:07:21.538Z,12.70
2019-05-12T21:09:44.200Z,12.60
2019-05-12T21:12:13.836Z,12.60
2019-05-12T21:14:51.487Z,12.50
2019-05-12T21:17:15.947Z,12.50
2019-05-12T21:19:55.508Z,12.60
2019-05-12T21:22:14.429Z,12.60
2019-05-12T21:24:43.824Z,12.60
2019-05-12T21:27:15.866Z,12.60
2019-05-12T21:29:43.735Z,12.40
2019-05-12T21:32:16.696Z,12.20
2019-05-12T21:34:43.687Z,12.20
2019-05-12T21:37:14.013Z,12.30
2019-05-12T21:39:46.853Z,12.20
2019-05-12T21:42:13.550Z,12.20
2019-05-12T21:44:47.005Z,12.10
2019-05-12T21:47:13.874Z,12.10
2019-05-12T21:49:48.036Z,11.90
2019-05-12T21:52:13.724Z,11.90
2019-05-12T21:54:43.970Z,11.80
2019-05-12T21:57:12.927Z,11.80
2019-05-12T21:59:42.158Z,11.60
2019-05-12T22:02:11.150Z,11.50
2019-05-12T22:04:42.633Z,11.60
2019-05-12T22:07:10.356Z,11.70
2019-05-12T22:09:46.973Z,11.60
2019-05-12T22:12:09.599Z,11.70
2019-05-12T22:14:40.799Z,11.70
2019-05-12T22:17:09.126Z,11.60
2019-05-12T22:19:38.245Z,11.60
2019-05-12T22:22:07.174Z,11.60
2019-05-12T22:24:38.707Z,11.60
2019-05-12T22:27:06.410Z,11.60
2019-05-12T22:29:35.262Z,11.50
2019-05-12T22:32:05.147Z,11.40
2019-05-12T22:34:39.746Z,11.30
2019-05-12T22:37:04.639Z,11.20
2019-05-12T22:39:34.335Z,11.20
2019-05-12T22:42:03.875Z,11.30
2019-05-12T22:44:34.744Z,11.30
2019-05-12T22:47:04.110Z,11.30
2019-05-12T22:49:33.956Z,11.40
2019-05-12T22:52:06.694Z,11.40
2019-05-12T22:54:33.743Z,11.40
2019-05-12T22:57:04.032Z,11.30
2019-05-12T22:59:40.293Z,11.30
2019-05-12T23:02:04.440Z,11.10
2019-05-12T23:04:39.955Z,11.10
2019-05-12T23:07:04.053Z,11.10
2019-05-12T23:09:33.943Z,11.10
2019-05-12T23:12:04.200Z,10.90
2019-05-12T23:14:34.035Z,10.80
2019-05-12T23:17:05.771Z,10.70
2019-05-12T23:19:34.120Z,10.80
2019-05-12T23:22:03.547Z,10.70
2019-05-12T23:24:39.189Z,10.80
2019-05-12T23:27:04.837Z,10.80
2019-05-12T23:29:33.921Z,10.60
2019-05-12T23:32:07.513Z,10.50
2019-05-12T23:34:33.901Z,10.50
2019-05-12T23:37:03.797Z,10.50
2019-05-12T23:39:38.122Z,10.30
2019-05-12T23:42:04.420Z,10.30
2019-05-12T23:44:39.105Z,10.30
2019-05-12T23:47:07.935Z,10.30
2019-05-12T23:49:36.748Z,10.30
2019-05-12T23:52:05.587Z,10.30
2019-05-12T23:54:34.619Z,10.40
2019-05-12T23:57:03.896Z,10.60
2019-05-12T23:59:33.514Z,10.50
